< < Back
Terminal Aerodrome Forecast


Current Version              Previous Versions:   1  2  3  4  5  6  7  8  9  

Terminal Aerodrome Forecast

912
FTUS44 KMRX 200539
TAFCHA
TAF
KCHA 200539Z 2006/2106 00000KT P6SM SCT045
     FM200800 00000KT 5SM BR SCT040 BKN250
     FM201300 25006KT P6SM SCT040 SCT150
     FM201900 28005KT P6SM VCTS BKN040CB
     FM210100 VRB03KT P6SM SCT040 BKN120=

Latest METAR

052
SAUS80 KWBC 201800
MTRCHA
METAR KCHA 201753Z 21006KT 10SM SCT030 SCT200 SCT250 33/23 A3004 RMK AO2
SLP162 T03280228 10328 20233 58001


USA.gov is the U.S. government's official web portal to all federal, state and local government web resources and services.